createdAt,value
2022-08-25T16:30:16.736Z,9.10
2022-08-25T16:32:44.610Z,10.27
2022-08-25T16:35:11.579Z,10.38
2022-08-25T16:37:38.193Z,9.70
2022-08-25T16:40:07.908Z,9.52
2022-08-25T16:45:01.685Z,9.00
2022-08-25T16:47:28.335Z,10.57
2022-08-25T16:49:55.457Z,10.00
2022-08-25T16:52:40.871Z,9.65
2022-08-25T16:55:14.339Z,10.30
2022-08-25T16:57:49.767Z,10.30
2022-08-25T17:00:28.327Z,9.86
2022-08-25T17:02:59.560Z,9.52
2022-08-25T17:05:29.651Z,8.65
2022-08-25T17:08:19.793Z,9.85
2022-08-25T17:10:47.164Z,11.00
2022-08-25T17:13:14.428Z,9.82
2022-08-25T17:15:46.815Z,10.05
2022-08-25T17:18:14.128Z,9.43
2022-08-25T17:20:43.297Z,9.82
2022-08-25T17:23:11.836Z,9.57
2022-08-25T17:25:43.119Z,10.18
2022-08-25T17:28:11.947Z,10.80
2022-08-25T17:30:39.260Z,10.27
2022-08-25T17:33:05.981Z,10.25
2022-08-25T17:35:38.905Z,9.52
2022-08-25T17:38:06.267Z,10.20
2022-08-25T17:40:34.054Z,10.77
2022-08-25T17:43:01.748Z,10.50
2022-08-25T17:45:28.348Z,10.63
2022-08-25T17:47:55.635Z,10.82
2022-08-25T17:50:24.568Z,10.60
2022-08-25T17:52:54.130Z,10.20
2022-08-25T17:55:22.846Z,10.77
2022-08-25T17:57:50.983Z,10.88
2022-08-25T18:00:20.126Z,10.38
2022-08-25T18:02:48.438Z,10.38
2022-08-25T18:05:16.610Z,11.35
2022-08-25T18:07:44.061Z,10.90
2022-08-25T18:10:11.959Z,10.98
2022-08-25T18:12:38.697Z,10.02
2022-08-25T18:15:06.739Z,10.80
2022-08-25T18:17:35.761Z,10.27
2022-08-25T18:20:06.184Z,11.55
2022-08-25T18:22:35.250Z,10.90
2022-08-25T18:25:03.906Z,10.77
2022-08-25T18:27:33.041Z,12.25
2022-08-25T18:30:01.384Z,11.63
2022-08-25T18:32:29.121Z,11.95
2022-08-25T18:34:56.462Z,10.77
2022-08-25T18:37:42.372Z,12.48
2022-08-25T18:40:22.785Z,12.43
2022-08-25T18:42:58.304Z,12.38
2022-08-25T18:45:28.244Z,12.43
2022-08-25T18:47:57.428Z,12.57
2022-08-25T18:50:25.882Z,11.75
2022-08-25T18:52:52.484Z,12.23
2022-08-25T18:55:23.020Z,12.45
2022-08-25T18:57:51.360Z,12.25
2022-08-25T19:00:20.428Z,13.10
2022-08-25T19:02:49.108Z,13.07
2022-08-25T19:05:16.394Z,12.13
2022-08-25T19:07:43.885Z,12.32
2022-08-25T19:10:10.558Z,14.07
2022-08-25T19:12:40.483Z,12.88
2022-08-25T19:15:09.319Z,13.05
2022-08-25T19:17:37.367Z,12.82
2022-08-25T19:20:11.037Z,12.57
2022-08-25T19:22:42.118Z,12.90
2022-08-25T19:25:10.688Z,12.88
2022-08-25T19:27:38.320Z,14.38
2022-08-25T19:30:09.004Z,12.80
2022-08-25T19:32:40.803Z,13.75
2022-08-25T19:35:13.804Z,13.80
2022-08-25T19:37:40.883Z,13.48
2022-08-25T19:40:09.567Z,12.98
2022-08-25T19:42:38.528Z,13.27
2022-08-25T19:45:09.151Z,12.93
2022-08-25T19:47:37.375Z,13.40
2022-08-25T19:50:09.414Z,12.52
2022-08-25T19:52:36.787Z,13.65
2022-08-25T19:55:03.753Z,12.67
2022-08-25T19:57:42.640Z,12.23
2022-08-25T20:00:20.576Z,13.82
2022-08-25T20:02:47.569Z,14.02
2022-08-25T20:05:16.837Z,12.52
2022-08-25T20:07:52.344Z,13.68
2022-08-25T20:10:21.262Z,12.93
2022-08-25T20:12:48.423Z,12.98
2022-08-25T20:15:16.472Z,12.93
2022-08-25T20:17:44.061Z,12.10
2022-08-25T20:20:15.823Z,12.57
2022-08-25T20:22:43.067Z,12.18
2022-08-25T20:25:14.324Z,13.40
2022-08-25T20:27:44.372Z,13.40
2022-08-25T20:30:16.621Z,13.95
2022-08-25T20:32:44.031Z,14.05
2022-08-25T20:35:12.939Z,13.40
2022-08-25T20:37:44.545Z,13.63
2022-08-25T20:40:20.782Z,13.07
2022-08-25T20:42:53.025Z,13.80
2022-08-25T20:45:23.967Z,13.70
2022-08-25T20:47:51.180Z,13.30
2022-08-25T20:50:18.661Z,13.73
2022-08-25T20:52:45.789Z,13.70
2022-08-25T20:55:12.830Z,14.50
2022-08-25T20:57:40.442Z,15.40
2022-08-25T21:00:09.418Z,14.23
2022-08-25T21:02:36.397Z,14.70
2022-08-25T21:05:04.744Z,15.35
2022-08-25T21:07:31.761Z,14.98
2022-08-25T21:10:07.181Z,15.93
2022-08-25T21:12:39.075Z,16.02
2022-08-25T21:15:06.423Z,14.93
2022-08-25T21:17:33.771Z,15.07
2022-08-25T21:20:00.335Z,13.77
2022-08-25T21:22:27.835Z,13.20
2022-08-25T21:24:55.015Z,14.70
2022-08-25T21:27:21.694Z,13.60
